sensor_id;sensor_type;location;lat;lon;timestamp;P1;durP1;ratioP1;P2;durP2;ratioP2
15393;SDS011;7795;47.986;11.868;2023-04-25T00:00:26;1.40;;;1.30;;
15393;SDS011;7795;47.986;11.868;2023-04-25T00:02:53;1.20;;;1.10;;
15393;SDS011;7795;47.986;11.868;2023-04-25T00:05:21;1.23;;;1.07;;
15393;SDS011;7795;47.986;11.868;2023-04-25T00:07:48;1.80;;;1.40;;
15393;SDS011;7795;47.986;11.868;2023-04-25T00:10:13;2.07;;;1.10;;
15393;SDS011;7795;47.986;11.868;2023-04-25T00:12:39;1.13;;;1.00;;
15393;SDS011;7795;47.986;11.868;2023-04-25T00:15:06;2.50;;;1.50;;
15393;SDS011;7795;47.986;11.868;2023-04-25T00:17:33;1.30;;;1.20;;
15393;SDS011;7795;47.986;11.868;2023-04-25T00:20:01;1.03;;;1.03;;
15393;SDS011;7795;47.986;11.868;2023-04-25T00:22:30;2.20;;;1.07;;
15393;SDS011;7795;47.986;11.868;2023-04-25T00:24:55;2.80;;;1.67;;
15393;SDS011;7795;47.986;11.868;2023-04-25T00:27:25;1.37;;;1.27;;
15393;SDS011;7795;47.986;11.868;2023-04-25T00:29:50;0.97;;;0.97;;
15393;SDS011;7795;47.986;11.868;2023-04-25T00:32:16;1.27;;;1.03;;
15393;SDS011;7795;47.986;11.868;2023-04-25T00:34:42;1.17;;;1.00;;
15393;SDS011;7795;47.986;11.868;2023-04-25T00:37:09;1.03;;;1.00;;
15393;SDS011;7795;47.986;11.868;2023-04-25T00:39:35;1.50;;;1.30;;
15393;SDS011;7795;47.986;11.868;2023-04-25T00:42:01;1.63;;;1.43;;
15393;SDS011;7795;47.986;11.868;2023-04-25T00:44:28;1.50;;;1.40;;
15393;SDS011;7795;47.986;11.868;2023-04-25T00:46:54;1.57;;;1.43;;
15393;SDS011;7795;47.986;11.868;2023-04-25T00:49:20;1.30;;;1.20;;
15393;SDS011;7795;47.986;11.868;2023-04-25T00:51:46;1.40;;;1.20;;
15393;SDS011;7795;47.986;11.868;2023-04-25T00:54:14;1.10;;;1.00;;
15393;SDS011;7795;47.986;11.868;2023-04-25T00:56:40;1.20;;;1.10;;
15393;SDS011;7795;47.986;11.868;2023-04-25T00:59:07;1.57;;;1.23;;
15393;SDS011;7795;47.986;11.868;2023-04-25T01:01:34;1.33;;;1.20;;
15393;SDS011;7795;47.986;11.868;2023-04-25T01:04:01;1.77;;;1.30;;
15393;SDS011;7795;47.986;11.868;2023-04-25T01:06:27;1.83;;;1.20;;
15393;SDS011;7795;47.986;11.868;2023-04-25T01:08:53;1.40;;;1.30;;
15393;SDS011;7795;47.986;11.868;2023-04-25T01:11:20;1.00;;;0.90;;
15393;SDS011;7795;47.986;11.868;2023-04-25T01:13:46;1.33;;;0.87;;
15393;SDS011;7795;47.986;11.868;2023-04-25T01:16:12;1.20;;;1.10;;
15393;SDS011;7795;47.986;11.868;2023-04-25T01:18:38;1.23;;;1.13;;
15393;SDS011;7795;47.986;11.868;2023-04-25T01:21:08;1.33;;;1.23;;
15393;SDS011;7795;47.986;11.868;2023-04-25T01:23:35;1.50;;;1.40;;
15393;SDS011;7795;47.986;11.868;2023-04-25T01:26:01;1.27;;;1.13;;
15393;SDS011;7795;47.986;11.868;2023-04-25T01:28:27;2.10;;;1.13;;
15393;SDS011;7795;47.986;11.868;2023-04-25T01:30:53;1.00;;;0.90;;
15393;SDS011;7795;47.986;11.868;2023-04-25T01:33:20;1.27;;;1.17;;
15393;SDS011;7795;47.986;11.868;2023-04-25T01:35:46;3.47;;;1.33;;
15393;SDS011;7795;47.986;11.868;2023-04-25T01:38:14;1.70;;;1.30;;
15393;SDS011;7795;47.986;11.868;2023-04-25T01:40:40;1.53;;;1.40;;
15393;SDS011;7795;47.986;11.868;2023-04-25T01:43:06;3.03;;;1.63;;
15393;SDS011;7795;47.986;11.868;2023-04-25T01:45:33;2.73;;;1.23;;
15393;SDS011;7795;47.986;11.868;2023-04-25T01:48:01;1.50;;;1.10;;
15393;SDS011;7795;47.986;11.868;2023-04-25T01:50:27;1.73;;;1.30;;
15393;SDS011;7795;47.986;11.868;2023-04-25T01:52:54;1.60;;;1.50;;
15393;SDS011;7795;47.986;11.868;2023-04-25T01:55:22;1.50;;;1.40;;
15393;SDS011;7795;47.986;11.868;2023-04-25T01:57:48;1.20;;;1.10;;
15393;SDS011;7795;47.986;11.868;2023-04-25T02:00:13;1.57;;;1.43;;
15393;SDS011;7795;47.986;11.868;2023-04-25T02:02:39;1.63;;;1.53;;
15393;SDS011;7795;47.986;11.868;2023-04-25T02:05:06;1.30;;;1.20;;
15393;SDS011;7795;47.986;11.868;2023-04-25T02:07:32;2.03;;;1.20;;
15393;SDS011;7795;47.986;11.868;2023-04-25T02:09:58;1.53;;;1.07;;
15393;SDS011;7795;47.986;11.868;2023-04-25T02:12:26;1.30;;;1.20;;
15393;SDS011;7795;47.986;11.868;2023-04-25T02:14:53;1.53;;;1.17;;
15393;SDS011;7795;47.986;11.868;2023-04-25T02:17:19;1.60;;;1.20;;
15393;SDS011;7795;47.986;11.868;2023-04-25T02:19:46;1.03;;;0.93;;
15393;SDS011;7795;47.986;11.868;2023-04-25T02:22:12;1.37;;;1.27;;
15393;SDS011;7795;47.986;11.868;2023-04-25T02:24:38;1.47;;;1.13;;
15393;SDS011;7795;47.986;11.868;2023-04-25T02:27:04;2.40;;;1.17;;
15393;SDS011;7795;47.986;11.868;2023-04-25T02:29:31;3.10;;;1.50;;
15393;SDS011;7795;47.986;11.868;2023-04-25T02:31:56;3.37;;;1.57;;
15393;SDS011;7795;47.986;11.868;2023-04-25T02:34:22;1.20;;;1.10;;
15393;SDS011;7795;47.986;11.868;2023-04-25T02:36:48;2.23;;;1.30;;
15393;SDS011;7795;47.986;11.868;2023-04-25T02:39:16;1.73;;;1.10;;
15393;SDS011;7795;47.986;11.868;2023-04-25T02:41:42;1.20;;;1.10;;
15393;SDS011;7795;47.986;11.868;2023-04-25T02:44:07;1.20;;;1.10;;
15393;SDS011;7795;47.986;11.868;2023-04-25T02:46:34;1.80;;;1.33;;
15393;SDS011;7795;47.986;11.868;2023-04-25T02:49:00;1.17;;;1.07;;
15393;SDS011;7795;47.986;11.868;2023-04-25T02:51:26;1.50;;;1.30;;
15393;SDS011;7795;47.986;11.868;2023-04-25T02:53:52;1.23;;;1.10;;
15393;SDS011;7795;47.986;11.868;2023-04-25T02:56:17;1.60;;;1.43;;
15393;SDS011;7795;47.986;11.868;2023-04-25T02:58:43;1.60;;;1.47;;
15393;SDS011;7795;47.986;11.868;2023-04-25T03:01:10;3.57;;;1.50;;
15393;SDS011;7795;47.986;11.868;2023-04-25T03:03:37;2.83;;;1.27;;
15393;SDS011;7795;47.986;11.868;2023-04-25T03:06:03;1.20;;;1.10;;
15393;SDS011;7795;47.986;11.868;2023-04-25T03:08:28;3.67;;;1.70;;
15393;SDS011;7795;47.986;11.868;2023-04-25T03:10:57;1.57;;;1.30;;
15393;SDS011;7795;47.986;11.868;2023-04-25T03:13:23;7.57;;;2.50;;
15393;SDS011;7795;47.986;11.868;2023-04-25T03:15:49;1.87;;;1.40;;
15393;SDS011;7795;47.986;11.868;2023-04-25T03:18:15;2.77;;;1.87;;
15393;SDS011;7795;47.986;11.868;2023-04-25T03:20:42;3.53;;;1.63;;
15393;SDS011;7795;47.986;11.868;2023-04-25T03:23:08;1.53;;;1.43;;
15393;SDS011;7795;47.986;11.868;2023-04-25T03:25:34;1.77;;;1.37;;
15393;SDS011;7795;47.986;11.868;2023-04-25T03:28:00;2.97;;;1.30;;
15393;SDS011;7795;47.986;11.868;2023-04-25T03:30:25;5.33;;;1.50;;
15393;SDS011;7795;47.986;11.868;2023-04-25T03:32:51;3.60;;;2.03;;
15393;SDS011;7795;47.986;11.868;2023-04-25T03:35:17;1.80;;;1.37;;
15393;SDS011;7795;47.986;11.868;2023-04-25T03:37:44;1.60;;;1.50;;
15393;SDS011;7795;47.986;11.868;2023-04-25T03:40:10;1.60;;;1.50;;
15393;SDS011;7795;47.986;11.868;2023-04-25T03:42:36;4.30;;;2.07;;
15393;SDS011;7795;47.986;11.868;2023-04-25T03:45:02;2.43;;;1.57;;
15393;SDS011;7795;47.986;11.868;2023-04-25T03:47:28;2.53;;;1.50;;
15393;SDS011;7795;47.986;11.868;2023-04-25T03:49:54;2.53;;;1.53;;
15393;SDS011;7795;47.986;11.868;2023-04-25T03:52:20;2.33;;;1.60;;
15393;SDS011;7795;47.986;11.868;2023-04-25T03:54:47;3.43;;;1.50;;
15393;SDS011;7795;47.986;11.868;2023-04-25T03:57:13;2.30;;;1.67;;
15393;SDS011;7795;47.986;11.868;2023-04-25T03:59:39;1.83;;;1.13;;
15393;SDS011;7795;47.986;11.868;2023-04-25T04:02:04;1.50;;;1.40;;
15393;SDS011;7795;47.986;11.868;2023-04-25T04:04:30;2.27;;;1.40;;
15393;SDS011;7795;47.986;11.868;2023-04-25T04:06:56;3.30;;;1.40;;
15393;SDS011;7795;47.986;11.868;2023-04-25T04:09:22;1.53;;;1.40;;
15393;SDS011;7795;47.986;11.868;2023-04-25T04:11:49;2.27;;;1.30;;
15393;SDS011;7795;47.986;11.868;2023-04-25T04:14:15;1.90;;;1.20;;
15393;SDS011;7795;47.986;11.868;2023-04-25T04:16:40;2.70;;;1.63;;
15393;SDS011;7795;47.986;11.868;2023-04-25T04:19:06;1.50;;;1.23;;
15393;SDS011;7795;47.986;11.868;2023-04-25T04:21:32;2.47;;;1.23;;
15393;SDS011;7795;47.986;11.868;2023-04-25T04:23:58;1.67;;;1.40;;
15393;SDS011;7795;47.986;11.868;2023-04-25T04:26:25;4.13;;;1.30;;
15393;SDS011;7795;47.986;11.868;2023-04-25T04:28:52;2.00;;;1.43;;
15393;SDS011;7795;47.986;11.868;2023-04-25T04:31:19;2.03;;;1.50;;
15393;SDS011;7795;47.986;11.868;2023-04-25T04:33:45;1.60;;;1.50;;
15393;SDS011;7795;47.986;11.868;2023-04-25T04:36:11;2.00;;;1.20;;
15393;SDS011;7795;47.986;11.868;2023-04-25T04:38:37;3.50;;;1.30;;
15393;SDS011;7795;47.986;11.868;2023-04-25T04:41:03;3.30;;;1.63;;
15393;SDS011;7795;47.986;11.868;2023-04-25T04:43:28;2.13;;;1.90;;
15393;SDS011;7795;47.986;11.868;2023-04-25T04:45:56;1.83;;;1.30;;
15393;SDS011;7795;47.986;11.868;2023-04-25T04:48:21;2.20;;;1.70;;
15393;SDS011;7795;47.986;11.868;2023-04-25T04:50:47;1.60;;;1.47;;
15393;SDS011;7795;47.986;11.868;2023-04-25T04:53:13;2.33;;;1.30;;
15393;SDS011;7795;47.986;11.868;2023-04-25T04:55:39;1.93;;;1.40;;
15393;SDS011;7795;47.986;11.868;2023-04-25T04:58:06;1.87;;;1.67;;
15393;SDS011;7795;47.986;11.868;2023-04-25T05:00:32;1.87;;;1.73;;
15393;SDS011;7795;47.986;11.868;2023-04-25T05:02:59;2.07;;;1.40;;
15393;SDS011;7795;47.986;11.868;2023-04-25T05:05:25;3.97;;;2.27;;
15393;SDS011;7795;47.986;11.868;2023-04-25T05:07:51;5.33;;;3.40;;
15393;SDS011;7795;47.986;11.868;2023-04-25T05:10:17;4.53;;;3.67;;
15393;SDS011;7795;47.986;11.868;2023-04-25T05:12:43;3.97;;;2.90;;
15393;SDS011;7795;47.986;11.868;2023-04-25T05:15:10;3.03;;;2.10;;
15393;SDS011;7795;47.986;11.868;2023-04-25T05:17:35;2.23;;;2.00;;
15393;SDS011;7795;47.986;11.868;2023-04-25T05:20:03;1.93;;;1.60;;
15393;SDS011;7795;47.986;11.868;2023-04-25T05:22:30;2.17;;;1.27;;
15393;SDS011;7795;47.986;11.868;2023-04-25T05:24:56;2.00;;;1.33;;
15393;SDS011;7795;47.986;11.868;2023-04-25T05:27:22;1.67;;;1.53;;
15393;SDS011;7795;47.986;11.868;2023-04-25T05:29:48;2.07;;;1.73;;
15393;SDS011;7795;47.986;11.868;2023-04-25T05:32:13;2.17;;;1.40;;
15393;SDS011;7795;47.986;11.868;2023-04-25T05:34:39;2.07;;;1.50;;
15393;SDS011;7795;47.986;11.868;2023-04-25T05:37:08;2.00;;;1.37;;
15393;SDS011;7795;47.986;11.868;2023-04-25T05:39:33;2.80;;;1.70;;
15393;SDS011;7795;47.986;11.868;2023-04-25T05:41:59;2.50;;;1.43;;
15393;SDS011;7795;47.986;11.868;2023-04-25T05:44:26;1.83;;;1.40;;
15393;SDS011;7795;47.986;11.868;2023-04-25T05:46:52;1.50;;;1.40;;
15393;SDS011;7795;47.986;11.868;2023-04-25T05:49:18;1.97;;;1.20;;
15393;SDS011;7795;47.986;11.868;2023-04-25T05:51:43;2.13;;;1.30;;
15393;SDS011;7795;47.986;11.868;2023-04-25T05:54:11;1.53;;;1.27;;
15393;SDS011;7795;47.986;11.868;2023-04-25T05:56:36;2.00;;;1.43;;
15393;SDS011;7795;47.986;11.868;2023-04-25T05:59:02;3.07;;;1.60;;
15393;SDS011;7795;47.986;11.868;2023-04-25T06:01:28;2.77;;;2.00;;
15393;SDS011;7795;47.986;11.868;2023-04-25T06:03:54;1.80;;;1.40;;
15393;SDS011;7795;47.986;11.868;2023-04-25T06:06:20;1.50;;;1.40;;
15393;SDS011;7795;47.986;11.868;2023-04-25T06:08:45;1.53;;;1.30;;
15393;SDS011;7795;47.986;11.868;2023-04-25T06:11:13;2.30;;;1.40;;
15393;SDS011;7795;47.986;11.868;2023-04-25T06:13:38;2.37;;;1.30;;
15393;SDS011;7795;47.986;11.868;2023-04-25T06:16:04;1.93;;;1.27;;
15393;SDS011;7795;47.986;11.868;2023-04-25T06:18:31;2.00;;;1.30;;
15393;SDS011;7795;47.986;11.868;2023-04-25T06:20:56;2.23;;;1.50;;
15393;SDS011;7795;47.986;11.868;2023-04-25T06:23:22;2.37;;;1.53;;
15393;SDS011;7795;47.986;11.868;2023-04-25T06:25:48;1.43;;;1.33;;
15393;SDS011;7795;47.986;11.868;2023-04-25T06:28:15;1.97;;;1.20;;
15393;SDS011;7795;47.986;11.868;2023-04-25T06:30:41;2.10;;;1.53;;
15393;SDS011;7795;47.986;11.868;2023-04-25T06:33:06;1.60;;;1.27;;
15393;SDS011;7795;47.986;11.868;2023-04-25T06:35:33;1.80;;;1.70;;
15393;SDS011;7795;47.986;11.868;2023-04-25T06:37:59;3.07;;;1.67;;
15393;SDS011;7795;47.986;11.868;2023-04-25T06:40:25;1.60;;;1.50;;
15393;SDS011;7795;47.986;11.868;2023-04-25T06:42:51;3.93;;;2.40;;
15393;SDS011;7795;47.986;11.868;2023-04-25T06:45:18;2.17;;;1.53;;
15393;SDS011;7795;47.986;11.868;2023-04-25T06:47:44;2.43;;;1.70;;
15393;SDS011;7795;47.986;11.868;2023-04-25T06:50:09;2.13;;;1.50;;
15393;SDS011;7795;47.986;11.868;2023-04-25T06:52:36;4.73;;;1.97;;
15393;SDS011;7795;47.986;11.868;2023-04-25T06:55:01;4.33;;;2.30;;
15393;SDS011;7795;47.986;11.868;2023-04-25T06:57:27;3.47;;;1.67;;
15393;SDS011;7795;47.986;11.868;2023-04-25T06:59:53;2.23;;;1.60;;
15393;SDS011;7795;47.986;11.868;2023-04-25T07:02:20;1.87;;;1.50;;
15393;SDS011;7795;47.986;11.868;2023-04-25T07:04:47;2.87;;;1.80;;
15393;SDS011;7795;47.986;11.868;2023-04-25T07:07:13;2.73;;;1.67;;
15393;SDS011;7795;47.986;11.868;2023-04-25T07:09:39;3.07;;;2.00;;
15393;SDS011;7795;47.986;11.868;2023-04-25T07:12:04;4.67;;;2.10;;
15393;SDS011;7795;47.986;11.868;2023-04-25T07:14:30;5.00;;;2.10;;
15393;SDS011;7795;47.986;11.868;2023-04-25T07:16:56;2.20;;;1.83;;
15393;SDS011;7795;47.986;11.868;2023-04-25T07:19:23;4.10;;;2.57;;
15393;SDS011;7795;47.986;11.868;2023-04-25T07:21:51;2.37;;;2.00;;
15393;SDS011;7795;47.986;11.868;2023-04-25T07:24:17;3.53;;;2.03;;
15393;SDS011;7795;47.986;11.868;2023-04-25T07:26:43;3.73;;;1.87;;
15393;SDS011;7795;47.986;11.868;2023-04-25T07:29:08;3.33;;;1.90;;
15393;SDS011;7795;47.986;11.868;2023-04-25T07:31:34;3.00;;;1.90;;
15393;SDS011;7795;47.986;11.868;2023-04-25T07:34:00;2.27;;;1.90;;
15393;SDS011;7795;47.986;11.868;2023-04-25T07:36:28;6.07;;;1.97;;
15393;SDS011;7795;47.986;11.868;2023-04-25T07:38:54;4.00;;;2.27;;
15393;SDS011;7795;47.986;11.868;2023-04-25T07:41:19;4.23;;;2.23;;
15393;SDS011;7795;47.986;11.868;2023-04-25T07:43:45;8.20;;;2.70;;
15393;SDS011;7795;47.986;11.868;2023-04-25T07:46:11;4.77;;;2.00;;
15393;SDS011;7795;47.986;11.868;2023-04-25T07:48:36;8.17;;;2.33;;
15393;SDS011;7795;47.986;11.868;2023-04-25T07:51:02;6.17;;;1.90;;
15393;SDS011;7795;47.986;11.868;2023-04-25T07:53:31;5.30;;;2.47;;
15393;SDS011;7795;47.986;11.868;2023-04-25T07:55:58;3.10;;;1.80;;
15393;SDS011;7795;47.986;11.868;2023-04-25T07:58:24;2.53;;;1.80;;
15393;SDS011;7795;47.986;11.868;2023-04-25T08:00:50;5.67;;;2.50;;
15393;SDS011;7795;47.986;11.868;2023-04-25T08:03:16;4.57;;;2.10;;
15393;SDS011;7795;47.986;11.868;2023-04-25T08:05:42;3.20;;;2.13;;
15393;SDS011;7795;47.986;11.868;2023-04-25T08:08:07;2.07;;;1.60;;
15393;SDS011;7795;47.986;11.868;2023-04-25T08:10:35;2.07;;;1.60;;
15393;SDS011;7795;47.986;11.868;2023-04-25T08:13:00;2.33;;;1.50;;
15393;SDS011;7795;47.986;11.868;2023-04-25T08:15:26;2.23;;;1.60;;
15393;SDS011;7795;47.986;11.868;2023-04-25T08:17:55;3.67;;;1.73;;
15393;SDS011;7795;47.986;11.868;2023-04-25T08:20:24;2.73;;;2.00;;
15393;SDS011;7795;47.986;11.868;2023-04-25T08:22:50;2.77;;;1.80;;
15393;SDS011;7795;47.986;11.868;2023-04-25T08:25:15;6.43;;;1.73;;
15393;SDS011;7795;47.986;11.868;2023-04-25T08:27:43;2.67;;;1.67;;
15393;SDS011;7795;47.986;11.868;2023-04-25T08:30:09;5.20;;;2.00;;
15393;SDS011;7795;47.986;11.868;2023-04-25T08:32:35;6.90;;;3.17;;
15393;SDS011;7795;47.986;11.868;2023-04-25T08:35:03;3.40;;;1.50;;
15393;SDS011;7795;47.986;11.868;2023-04-25T08:37:29;2.20;;;1.60;;
15393;SDS011;7795;47.986;11.868;2023-04-25T08:39:55;1.40;;;1.30;;
15393;SDS011;7795;47.986;11.868;2023-04-25T08:42:21;3.17;;;1.40;;
15393;SDS011;7795;47.986;11.868;2023-04-25T08:44:49;4.23;;;1.70;;
15393;SDS011;7795;47.986;11.868;2023-04-25T08:47:15;2.03;;;1.40;;
15393;SDS011;7795;47.986;11.868;2023-04-25T08:49:45;2.90;;;1.53;;
15393;SDS011;7795;47.986;11.868;2023-04-25T08:52:12;2.23;;;1.57;;
15393;SDS011;7795;47.986;11.868;2023-04-25T08:54:39;4.60;;;2.23;;
15393;SDS011;7795;47.986;11.868;2023-04-25T08:57:09;2.17;;;1.40;;
15393;SDS011;7795;47.986;11.868;2023-04-25T08:59:35;2.90;;;1.60;;
15393;SDS011;7795;47.986;11.868;2023-04-25T09:02:03;2.07;;;1.40;;
15393;SDS011;7795;47.986;11.868;2023-04-25T09:04:29;3.33;;;1.40;;
15393;SDS011;7795;47.986;11.868;2023-04-25T09:06:56;1.83;;;1.23;;
15393;SDS011;7795;47.986;11.868;2023-04-25T09:09:22;1.57;;;1.40;;
15393;SDS011;7795;47.986;11.868;2023-04-25T09:11:49;1.40;;;1.30;;
15393;SDS011;7795;47.986;11.868;2023-04-25T09:14:15;2.80;;;1.40;;
15393;SDS011;7795;47.986;11.868;2023-04-25T09:16:57;3.30;;;1.40;;
15393;SDS011;7795;47.986;11.868;2023-04-25T09:19:29;4.13;;;1.37;;
15393;SDS011;7795;47.986;11.868;2023-04-25T09:21:56;1.40;;;1.30;;
15393;SDS011;7795;47.986;11.868;2023-04-25T09:24:30;2.17;;;1.23;;
15393;SDS011;7795;47.986;11.868;2023-04-25T09:26:57;1.67;;;1.30;;
15393;SDS011;7795;47.986;11.868;2023-04-25T09:29:28;1.23;;;1.13;;
15393;SDS011;7795;47.986;11.868;2023-04-25T09:32:04;1.40;;;1.30;;
15393;SDS011;7795;47.986;11.868;2023-04-25T09:34:40;18.63;;;3.73;;
15393;SDS011;7795;47.986;11.868;2023-04-25T09:37:07;7.17;;;1.80;;
15393;SDS011;7795;47.986;11.868;2023-04-25T09:39:33;7.27;;;2.17;;
15393;SDS011;7795;47.986;11.868;2023-04-25T09:42:00;4.63;;;1.77;;
15393;SDS011;7795;47.986;11.868;2023-04-25T09:44:25;9.60;;;2.73;;
15393;SDS011;7795;47.986;11.868;2023-04-25T09:46:52;2.73;;;1.30;;
15393;SDS011;7795;47.986;11.868;2023-04-25T09:49:19;3.73;;;1.87;;
15393;SDS011;7795;47.986;11.868;2023-04-25T09:51:54;7.53;;;1.83;;
15393;SDS011;7795;47.986;11.868;2023-04-25T09:54:20;5.67;;;1.63;;
15393;SDS011;7795;47.986;11.868;2023-04-25T09:56:46;1.57;;;1.13;;
15393;SDS011;7795;47.986;11.868;2023-04-25T09:59:16;3.03;;;1.80;;
15393;SDS011;7795;47.986;11.868;2023-04-25T10:01:43;2.93;;;1.40;;
15393;SDS011;7795;47.986;11.868;2023-04-25T10:04:10;2.43;;;1.70;;
15393;SDS011;7795;47.986;11.868;2023-04-25T10:06:36;5.20;;;2.03;;
15393;SDS011;7795;47.986;11.868;2023-04-25T10:09:04;3.73;;;1.80;;
15393;SDS011;7795;47.986;11.868;2023-04-25T10:11:33;1.90;;;1.30;;
15393;SDS011;7795;47.986;11.868;2023-04-25T10:14:00;2.00;;;1.40;;
15393;SDS011;7795;47.986;11.868;2023-04-25T10:16:26;1.50;;;1.40;;
15393;SDS011;7795;47.986;11.868;2023-04-25T10:18:53;2.83;;;1.30;;
15393;SDS011;7795;47.986;11.868;2023-04-25T10:21:19;1.07;;;0.93;;
15393;SDS011;7795;47.986;11.868;2023-04-25T10:23:46;1.27;;;1.17;;
15393;SDS011;7795;47.986;11.868;2023-04-25T10:26:14;1.83;;;1.00;;
15393;SDS011;7795;47.986;11.868;2023-04-25T10:28:57;2.30;;;1.30;;
15393;SDS011;7795;47.986;11.868;2023-04-25T10:31:24;2.53;;;1.83;;
15393;SDS011;7795;47.986;11.868;2023-04-25T10:33:50;3.50;;;2.40;;
15393;SDS011;7795;47.986;11.868;2023-04-25T10:36:18;2.20;;;2.00;;
15393;SDS011;7795;47.986;11.868;2023-04-25T10:38:46;2.60;;;1.30;;
15393;SDS011;7795;47.986;11.868;2023-04-25T10:41:15;6.77;;;1.53;;
15393;SDS011;7795;47.986;11.868;2023-04-25T10:43:44;3.97;;;2.20;;
15393;SDS011;7795;47.986;11.868;2023-04-25T10:46:17;4.23;;;1.60;;
15393;SDS011;7795;47.986;11.868;2023-04-25T10:48:45;2.70;;;1.30;;
15393;SDS011;7795;47.986;11.868;2023-04-25T10:51:16;3.27;;;1.60;;
15393;SDS011;7795;47.986;11.868;2023-04-25T10:53:43;2.17;;;1.30;;
15393;SDS011;7795;47.986;11.868;2023-04-25T10:56:09;1.57;;;1.37;;
15393;SDS011;7795;47.986;11.868;2023-04-25T10:58:38;2.60;;;1.40;;
15393;SDS011;7795;47.986;11.868;2023-04-25T11:01:07;4.37;;;1.40;;
15393;SDS011;7795;47.986;11.868;2023-04-25T11:03:33;7.63;;;2.00;;
15393;SDS011;7795;47.986;11.868;2023-04-25T11:06:05;1.27;;;1.17;;
15393;SDS011;7795;47.986;11.868;2023-04-25T11:08:47;1.83;;;1.30;;
15393;SDS011;7795;47.986;11.868;2023-04-25T11:11:14;2.67;;;1.40;;
15393;SDS011;7795;47.986;11.868;2023-04-25T11:13:41;4.53;;;1.73;;
15393;SDS011;7795;47.986;11.868;2023-04-25T11:16:07;1.93;;;1.30;;
15393;SDS011;7795;47.986;11.868;2023-04-25T11:18:33;3.37;;;1.47;;
15393;SDS011;7795;47.986;11.868;2023-04-25T11:20:59;3.47;;;1.13;;
15393;SDS011;7795;47.986;11.868;2023-04-25T11:23:25;1.63;;;1.23;;
15393;SDS011;7795;47.986;11.868;2023-04-25T11:25:52;4.43;;;1.37;;
15393;SDS011;7795;47.986;11.868;2023-04-25T11:28:20;3.47;;;1.37;;
15393;SDS011;7795;47.986;11.868;2023-04-25T11:30:49;1.37;;;1.27;;
15393;SDS011;7795;47.986;11.868;2023-04-25T11:33:18;3.40;;;1.70;;
15393;SDS011;7795;47.986;11.868;2023-04-25T11:35:48;1.87;;;1.17;;
15393;SDS011;7795;47.986;11.868;2023-04-25T11:38:14;1.50;;;1.33;;
15393;SDS011;7795;47.986;11.868;2023-04-25T11:40:40;1.30;;;1.13;;
15393;SDS011;7795;47.986;11.868;2023-04-25T11:43:06;1.50;;;1.30;;
15393;SDS011;7795;47.986;11.868;2023-04-25T11:45:32;2.50;;;1.27;;
15393;SDS011;7795;47.986;11.868;2023-04-25T11:47:59;1.87;;;1.40;;
15393;SDS011;7795;47.986;11.868;2023-04-25T11:50:27;1.77;;;1.60;;
15393;SDS011;7795;47.986;11.868;2023-04-25T11:52:55;2.10;;;1.50;;
15393;SDS011;7795;47.986;11.868;2023-04-25T11:55:21;2.80;;;1.50;;
15393;SDS011;7795;47.986;11.868;2023-04-25T11:57:48;1.40;;;1.30;;
15393;SDS011;7795;47.986;11.868;2023-04-25T12:00:18;1.67;;;1.30;;
15393;SDS011;7795;47.986;11.868;2023-04-25T12:02:46;1.47;;;1.17;;
15393;SDS011;7795;47.986;11.868;2023-04-25T12:05:14;1.43;;;1.33;;
15393;SDS011;7795;47.986;11.868;2023-04-25T12:07:41;3.57;;;1.40;;
15393;SDS011;7795;47.986;11.868;2023-04-25T12:10:08;1.37;;;1.03;;
15393;SDS011;7795;47.986;11.868;2023-04-25T12:12:35;1.20;;;1.10;;
15393;SDS011;7795;47.986;11.868;2023-04-25T12:15:08;3.30;;;1.13;;
15393;SDS011;7795;47.986;11.868;2023-04-25T12:17:39;1.03;;;0.90;;
15393;SDS011;7795;47.986;11.868;2023-04-25T12:20:06;1.83;;;1.30;;
15393;SDS011;7795;47.986;11.868;2023-04-25T12:22:35;1.43;;;1.33;;
15393;SDS011;7795;47.986;11.868;2023-04-25T12:25:01;1.57;;;1.00;;
15393;SDS011;7795;47.986;11.868;2023-04-25T12:27:30;2.03;;;1.40;;
15393;SDS011;7795;47.986;11.868;2023-04-25T12:29:56;2.13;;;1.43;;
15393;SDS011;7795;47.986;11.868;2023-04-25T12:32:23;1.80;;;1.30;;
15393;SDS011;7795;47.986;11.868;2023-04-25T12:34:50;2.93;;;1.70;;
15393;SDS011;7795;47.986;11.868;2023-04-25T12:37:15;1.27;;;1.07;;
15393;SDS011;7795;47.986;11.868;2023-04-25T12:39:42;1.43;;;1.23;;
15393;SDS011;7795;47.986;11.868;2023-04-25T12:42:08;2.53;;;1.17;;
15393;SDS011;7795;47.986;11.868;2023-04-25T12:44:36;1.47;;;1.37;;
15393;SDS011;7795;47.986;11.868;2023-04-25T12:47:02;1.60;;;1.50;;
15393;SDS011;7795;47.986;11.868;2023-04-25T12:49:28;2.13;;;1.30;;
15393;SDS011;7795;47.986;11.868;2023-04-25T12:51:54;1.40;;;1.00;;
15393;SDS011;7795;47.986;11.868;2023-04-25T12:54:20;0.93;;;0.90;;
15393;SDS011;7795;47.986;11.868;2023-04-25T12:56:47;1.20;;;1.10;;
15393;SDS011;7795;47.986;11.868;2023-04-25T12:59:13;1.20;;;1.10;;
15393;SDS011;7795;47.986;11.868;2023-04-25T13:01:39;3.33;;;1.20;;
15393;SDS011;7795;47.986;11.868;2023-04-25T13:04:04;1.53;;;1.17;;
15393;SDS011;7795;47.986;11.868;2023-04-25T13:06:30;1.77;;;1.30;;
15393;SDS011;7795;47.986;11.868;2023-04-25T13:08:56;0.90;;;0.90;;
15393;SDS011;7795;47.986;11.868;2023-04-25T13:11:22;1.50;;;1.20;;
15393;SDS011;7795;47.986;11.868;2023-04-25T13:13:49;1.13;;;1.03;;
15393;SDS011;7795;47.986;11.868;2023-04-25T13:16:15;1.10;;;0.87;;
15393;SDS011;7795;47.986;11.868;2023-04-25T13:18:41;0.70;;;0.70;;
15393;SDS011;7795;47.986;11.868;2023-04-25T13:21:08;0.93;;;0.90;;
15393;SDS011;7795;47.986;11.868;2023-04-25T13:23:35;1.17;;;1.00;;
15393;SDS011;7795;47.986;11.868;2023-04-25T13:26:01;1.33;;;0.83;;
15393;SDS011;7795;47.986;11.868;2023-04-25T13:28:27;0.90;;;0.90;;
15393;SDS011;7795;47.986;11.868;2023-04-25T13:30:54;0.80;;;0.80;;
15393;SDS011;7795;47.986;11.868;2023-04-25T13:33:20;1.60;;;1.03;;
15393;SDS011;7795;47.986;11.868;2023-04-25T13:35:46;1.30;;;1.20;;
15393;SDS011;7795;47.986;11.868;2023-04-25T13:38:19;1.20;;;0.77;;
15393;SDS011;7795;47.986;11.868;2023-04-25T13:40:45;0.70;;;0.70;;
15393;SDS011;7795;47.986;11.868;2023-04-25T13:43:11;1.20;;;0.77;;
15393;SDS011;7795;47.986;11.868;2023-04-25T13:45:37;0.70;;;0.70;;
15393;SDS011;7795;47.986;11.868;2023-04-25T13:48:04;1.23;;;1.13;;
15393;SDS011;7795;47.986;11.868;2023-04-25T13:50:30;1.30;;;1.20;;
15393;SDS011;7795;47.986;11.868;2023-04-25T13:52:56;1.00;;;1.00;;
15393;SDS011;7795;47.986;11.868;2023-04-25T13:55:22;0.93;;;0.93;;
15393;SDS011;7795;47.986;11.868;2023-04-25T13:57:48;1.00;;;0.80;;
15393;SDS011;7795;47.986;11.868;2023-04-25T14:00:14;0.70;;;0.70;;
15393;SDS011;7795;47.986;11.868;2023-04-25T14:02:40;1.00;;;1.00;;
15393;SDS011;7795;47.986;11.868;2023-04-25T14:05:08;1.07;;;0.77;;
15393;SDS011;7795;47.986;11.868;2023-04-25T14:07:34;1.60;;;1.10;;
15393;SDS011;7795;47.986;11.868;2023-04-25T14:10:00;0.70;;;0.70;;
15393;SDS011;7795;47.986;11.868;2023-04-25T14:12:26;0.80;;;0.77;;
15393;SDS011;7795;47.986;11.868;2023-04-25T14:14:52;0.70;;;0.70;;
15393;SDS011;7795;47.986;11.868;2023-04-25T14:17:18;0.73;;;0.73;;
15393;SDS011;7795;47.986;11.868;2023-04-25T14:19:43;1.07;;;0.93;;
15393;SDS011;7795;47.986;11.868;2023-04-25T14:22:12;0.83;;;0.73;;
15393;SDS011;7795;47.986;11.868;2023-04-25T14:24:37;1.07;;;1.00;;
15393;SDS011;7795;47.986;11.868;2023-04-25T14:27:03;0.97;;;0.80;;
15393;SDS011;7795;47.986;11.868;2023-04-25T14:29:29;1.47;;;1.33;;
15393;SDS011;7795;47.986;11.868;2023-04-25T14:31:55;1.37;;;1.10;;
15393;SDS011;7795;47.986;11.868;2023-04-25T14:34:22;1.00;;;0.90;;
15393;SDS011;7795;47.986;11.868;2023-04-25T14:36:48;0.80;;;0.80;;
15393;SDS011;7795;47.986;11.868;2023-04-25T14:39:15;0.97;;;0.80;;
15393;SDS011;7795;47.986;11.868;2023-04-25T14:41:41;0.87;;;0.80;;
15393;SDS011;7795;47.986;11.868;2023-04-25T14:44:07;0.70;;;0.70;;